KMGE/MGE METAR and TAF weather

Enter ICAO airport designator
Station Type Date Time Source
KMGE METAR 2019/12/16 02:56 UTC NOAA

KMGE 160256Z 13003KT 10SM OVC030 13/09 A3011 RMK AO2A SLP197 T01300089 50001 $


Station Type Date Time Source
KMGE Decoded METAR 2019/12/16 02:56 UTC NOAA

Marietta / Dobbins Air Force Base, GA, United States (KMGE) 33-55N 084-31W 326M
Dec 15, 2019 - 09:56 PM EST / 2019.12.16 0256 UTC
Wind: from the SE (130 degrees) at 3 MPH (3 KT):0
Visibility: 10 mile(s):0
Sky conditions: overcast
Temperature: 55.4 F (13.0 C)
Dew Point: 48.0 F (8.9 C)
Relative Humidity: 76%
Pressure (altimeter): 30.11 in. Hg (1019 hPa)
Pressure tendency: 0.00 inches (0.1 hPa) higher than three hours ago
ob: KMGE 160256Z 13003KT 10SM OVC030 13/09 A3011 RMK AO2A SLP197 T01300089 50001
cycle: 3

Station Type Date Time Source
KMGE TAF 2019/12/15 22:08 UTC NOAA

TAF KMGE 152200Z 1522/1704 19009KT 9999 SCT015 BKN030 OVC090 QNH3010INS
BECMG 1603/1604 16005KT 9999 BKN015 OVC030 QNH3014INS
BECMG 1609/1610 17005KT 8000 BR OVC008 QNH3011INS
BECMG 1616/1617 17009KT 9999 VCSH BKN020 OVC040 QNH2990INS
BECMG 1702/1703 19012KT 8000 -RA BR BKN009 OVC015 QNH2988INS TX18/1620Z TN08/1612Z

Example: see airport list